createdAt,value
2019-03-11T00:00:59.747Z,8.67
2019-03-11T00:02:09.066Z,8.64
2019-03-11T00:03:17.238Z,8.60
2019-03-11T00:04:26.096Z,8.58
2019-03-11T00:05:34.804Z,8.55
2019-03-11T00:06:43.018Z,8.53
2019-03-11T00:07:51.138Z,8.50
2019-03-11T00:08:59.284Z,8.47
2019-03-11T00:10:09.451Z,8.46
2019-03-11T00:11:17.541Z,8.44
2019-03-11T00:12:25.456Z,8.43
2019-03-11T00:13:33.486Z,8.43
2019-03-11T00:14:41.174Z,8.42
2019-03-11T00:15:49.128Z,8.43
2019-03-11T00:16:57.203Z,8.43
2019-03-11T00:18:05.389Z,8.43
2019-03-11T00:19:13.309Z,8.41
2019-03-11T00:20:21.510Z,8.41
2019-03-11T00:21:29.405Z,8.37
2019-03-11T00:22:37.217Z,8.35
2019-03-11T00:23:45.031Z,8.33
2019-03-11T00:24:52.985Z,8.35
2019-03-11T00:26:00.959Z,8.38
2019-03-11T00:27:09.327Z,8.41
2019-03-11T00:28:17.260Z,8.47
2019-03-11T00:29:25.429Z,8.56
2019-03-11T00:30:33.264Z,8.64
2019-03-11T00:31:41.094Z,8.70
2019-03-11T00:32:49.138Z,8.76
2019-03-11T00:33:58.376Z,8.77
2019-03-11T00:35:07.740Z,8.80
2019-03-11T00:36:15.533Z,8.83
2019-03-11T00:37:23.444Z,8.89
2019-03-11T00:38:31.100Z,8.93
2019-03-11T00:39:39.078Z,8.97
2019-03-11T00:40:47.331Z,9.00
2019-03-11T00:41:55.116Z,9.02
2019-03-11T00:43:02.908Z,9.05
2019-03-11T00:44:10.921Z,9.08
2019-03-11T00:45:18.895Z,9.09
2019-03-11T00:46:26.807Z,9.10
2019-03-11T00:47:34.544Z,9.13
2019-03-11T00:48:42.264Z,9.15
2019-03-11T00:49:50.354Z,9.19
2019-03-11T00:50:58.254Z,9.19
2019-03-11T00:52:06.456Z,9.20
2019-03-11T00:53:14.323Z,9.24
2019-03-11T00:54:22.125Z,9.26
2019-03-11T00:55:30.040Z,9.28
2019-03-11T00:56:37.722Z,9.28
2019-03-11T00:57:45.572Z,9.29
2019-03-11T00:58:53.378Z,9.31
2019-03-11T01:00:01.173Z,9.32
2019-03-11T01:01:09.148Z,9.30
2019-03-11T01:02:17.084Z,9.21
2019-03-11T01:03:25.159Z,9.11
2019-03-11T01:04:33.000Z,9.05
2019-03-11T01:05:40.777Z,9.01
2019-03-11T01:06:48.631Z,8.95
2019-03-11T01:07:56.460Z,8.89
2019-03-11T01:09:05.826Z,8.81
2019-03-11T01:10:13.910Z,8.78
2019-03-11T01:11:21.703Z,8.72
2019-03-11T01:12:29.556Z,8.69
2019-03-11T01:13:37.394Z,8.66
2019-03-11T01:14:45.053Z,8.61
2019-03-11T01:15:52.792Z,8.54
2019-03-11T01:17:00.747Z,8.51
2019-03-11T01:18:08.831Z,8.50
2019-03-11T01:19:16.621Z,8.48
2019-03-11T01:20:24.547Z,8.49
2019-03-11T01:21:32.369Z,8.48
2019-03-11T01:22:40.232Z,8.44
2019-03-11T01:23:48.123Z,8.30
2019-03-11T01:24:55.900Z,8.16
2019-03-11T01:26:04.413Z,8.05
2019-03-11T01:27:12.295Z,7.93
2019-03-11T01:28:20.409Z,7.88
2019-03-11T01:29:28.426Z,8.00
2019-03-11T01:30:36.664Z,8.10
2019-03-11T01:31:45.491Z,8.11
2019-03-11T01:32:54.070Z,8.07
2019-03-11T01:34:02.474Z,8.19
2019-03-11T01:35:11.227Z,7.96
2019-03-11T01:36:19.617Z,7.72
2019-03-11T01:37:27.705Z,7.63
2019-03-11T01:38:35.745Z,7.53
2019-03-11T01:39:46.202Z,7.51
2019-03-11T01:40:54.361Z,7.44
2019-03-11T01:42:02.420Z,7.39
2019-03-11T01:43:10.231Z,7.36
2019-03-11T01:44:18.091Z,7.31
2019-03-11T01:45:25.837Z,7.29
2019-03-11T01:46:33.595Z,7.25
2019-03-11T01:47:41.620Z,7.21
2019-03-11T01:48:49.561Z,7.13
2019-03-11T01:49:57.491Z,7.08
2019-03-11T01:51:05.851Z,7.05
2019-03-11T01:52:13.568Z,7.00
2019-03-11T01:53:21.419Z,6.76
2019-03-11T01:54:29.561Z,6.63
2019-03-11T01:55:37.501Z,6.46
2019-03-11T01:56:45.421Z,6.31
2019-03-11T01:57:54.790Z,6.18
2019-03-11T01:59:02.879Z,6.11
2019-03-11T02:00:14.883Z,6.13
2019-03-11T02:01:22.919Z,6.11
2019-03-11T02:02:30.775Z,6.00
2019-03-11T02:03:38.525Z,5.94
2019-03-11T02:04:46.558Z,5.93
2019-03-11T02:05:54.418Z,5.67
2019-03-11T02:07:02.734Z,5.47
2019-03-11T02:08:10.980Z,5.18
2019-03-11T02:09:19.736Z,4.96
2019-03-11T02:10:28.048Z,4.79
2019-03-11T02:11:35.930Z,4.71
2019-03-11T02:12:44.018Z,4.68
2019-03-11T02:13:52.323Z,4.59
2019-03-11T02:15:00.518Z,4.57
2019-03-11T02:16:08.430Z,4.63
2019-03-11T02:17:16.114Z,4.64
2019-03-11T02:18:24.407Z,4.65
2019-03-11T02:19:32.502Z,4.63
2019-03-11T02:20:40.596Z,4.69
2019-03-11T02:21:48.492Z,4.74
2019-03-11T02:22:56.290Z,4.75
2019-03-11T02:24:04.161Z,4.78
2019-03-11T02:25:12.543Z,4.80
2019-03-11T02:26:20.477Z,4.83
2019-03-11T02:27:28.516Z,4.86
2019-03-11T02:28:36.254Z,4.88
2019-03-11T02:29:44.396Z,4.92
2019-03-11T02:30:52.557Z,4.97
2019-03-11T02:32:00.623Z,5.02
2019-03-11T02:33:08.643Z,5.03
2019-03-11T02:34:16.766Z,5.06
2019-03-11T02:35:30.547Z,5.03
2019-03-11T02:36:38.430Z,4.97
2019-03-11T02:37:46.526Z,4.99
2019-03-11T02:38:54.410Z,4.93
2019-03-11T02:40:02.738Z,4.96
2019-03-11T02:41:10.640Z,4.97
2019-03-11T02:42:18.508Z,4.84
2019-03-11T02:43:26.300Z,4.80
2019-03-11T02:44:34.565Z,4.64
2019-03-11T02:45:42.755Z,4.67
2019-03-11T02:46:50.808Z,4.64
2019-03-11T02:47:59.008Z,4.63
2019-03-11T02:49:06.883Z,4.69
2019-03-11T02:50:15.072Z,4.67
2019-03-11T02:51:22.819Z,4.67
2019-03-11T02:52:30.877Z,4.65
2019-03-11T02:53:38.896Z,4.61
2019-03-11T02:54:46.969Z,4.40
2019-03-11T02:55:54.750Z,4.33
2019-03-11T02:57:02.856Z,4.36
2019-03-11T02:58:10.600Z,4.17
2019-03-11T02:59:18.469Z,4.19
2019-03-11T03:00:26.766Z,4.21
2019-03-11T03:01:52.663Z,4.19
2019-03-11T03:03:18.301Z,4.02
2019-03-11T03:04:39.881Z,3.95
2019-03-11T03:05:49.633Z,4.00
2019-03-11T03:06:57.634Z,4.02
2019-03-11T03:08:06.016Z,4.08
2019-03-11T03:09:15.691Z,4.00
2019-03-11T03:10:23.789Z,3.98
2019-03-11T03:11:31.870Z,4.04
2019-03-11T03:12:39.676Z,3.97
2019-03-11T03:13:47.393Z,3.82
2019-03-11T03:14:55.669Z,3.90
2019-03-11T03:16:03.751Z,3.95
2019-03-11T03:17:11.811Z,4.01
2019-03-11T03:18:19.691Z,3.85
2019-03-11T03:19:27.660Z,3.85
2019-03-11T03:20:35.859Z,3.83
2019-03-11T03:21:43.994Z,3.79
2019-03-11T03:22:51.879Z,3.76
2019-03-11T03:23:59.921Z,3.68
2019-03-11T03:25:12.033Z,3.68
2019-03-11T03:26:20.294Z,3.71
2019-03-11T03:27:28.493Z,3.73
2019-03-11T03:28:36.698Z,3.70
2019-03-11T03:29:44.658Z,3.61
2019-03-11T03:30:52.774Z,3.49
2019-03-11T03:32:00.782Z,3.52
2019-03-11T03:33:08.736Z,3.48
2019-03-11T03:34:17.242Z,3.55
2019-03-11T03:35:25.067Z,3.55
2019-03-11T03:36:32.925Z,3.62
2019-03-11T03:37:40.814Z,3.72
2019-03-11T03:38:48.744Z,3.68
2019-03-11T03:39:56.609Z,3.62
2019-03-11T03:41:04.670Z,3.65
2019-03-11T03:42:13.568Z,3.64
2019-03-11T03:43:22.066Z,3.65
2019-03-11T03:44:30.117Z,3.45
2019-03-11T03:45:41.354Z,3.39
2019-03-11T03:46:49.513Z,3.46
2019-03-11T03:47:57.882Z,3.45
2019-03-11T03:49:06.202Z,3.53
2019-03-11T03:50:14.712Z,3.49
2019-03-11T03:51:22.701Z,3.45
2019-03-11T03:52:30.553Z,3.41
2019-03-11T03:53:38.323Z,3.37
2019-03-11T03:54:46.277Z,3.43
2019-03-11T03:55:54.270Z,3.48
2019-03-11T03:57:02.471Z,3.50
2019-03-11T03:58:10.235Z,3.50
2019-03-11T03:59:18.045Z,3.51
2019-03-11T04:00:26.579Z,3.59
2019-03-11T04:01:34.463Z,3.53
2019-03-11T04:02:42.421Z,3.58
2019-03-11T04:03:50.453Z,3.48
2019-03-11T04:04:58.621Z,3.52
2019-03-11T04:06:06.542Z,3.59
2019-03-11T04:07:14.408Z,3.49
2019-03-11T04:08:22.408Z,3.45
2019-03-11T04:09:30.325Z,3.44
2019-03-11T04:10:38.420Z,3.32
2019-03-11T04:11:46.406Z,3.31
2019-03-11T04:12:54.702Z,3.37
2019-03-11T04:14:02.847Z,3.35
2019-03-11T04:15:11.997Z,3.35
2019-03-11T04:16:20.359Z,3.28
2019-03-11T04:17:28.747Z,3.24
2019-03-11T04:18:54.274Z,3.16
2019-03-11T04:20:02.438Z,3.13
2019-03-11T04:21:10.430Z,3.08
2019-03-11T04:22:18.494Z,3.11
2019-03-11T04:23:26.726Z,3.14
2019-03-11T04:24:34.710Z,3.10
2019-03-11T04:25:42.670Z,3.03
2019-03-11T04:26:54.412Z,3.08
2019-03-11T04:28:02.597Z,3.02
2019-03-11T04:29:10.789Z,3.06
2019-03-11T04:30:23.186Z,3.04
2019-03-11T04:31:31.091Z,3.09
2019-03-11T04:32:38.870Z,3.05
2019-03-11T04:33:47.226Z,3.09
2019-03-11T04:34:55.177Z,3.13
2019-03-11T04:36:03.389Z,3.13
2019-03-11T04:37:11.204Z,3.08
2019-03-11T04:38:19.283Z,3.06
2019-03-11T04:39:27.298Z,3.04
2019-03-11T04:40:35.171Z,2.99
2019-03-11T04:41:43.143Z,2.95
2019-03-11T04:42:51.578Z,2.93
2019-03-11T04:43:59.539Z,2.92
2019-03-11T04:45:11.477Z,2.96
2019-03-11T04:46:19.795Z,2.96
2019-03-11T04:47:27.745Z,2.99
2019-03-11T04:48:35.979Z,3.00
2019-03-11T04:49:44.000Z,3.02
2019-03-11T04:50:51.924Z,2.98
2019-03-11T04:52:00.060Z,3.04
2019-03-11T04:53:07.930Z,3.11
2019-03-11T04:54:15.722Z,3.10
2019-03-11T04:55:23.630Z,3.12
2019-03-11T04:56:31.569Z,3.11
2019-03-11T04:57:53.954Z,3.15
2019-03-11T04:59:13.332Z,3.18
2019-03-11T05:00:25.379Z,3.15
2019-03-11T05:01:33.252Z,3.18
2019-03-11T05:02:41.345Z,3.20
2019-03-11T05:03:49.696Z,3.15
2019-03-11T05:04:57.661Z,3.19
2019-03-11T05:06:05.607Z,3.23
2019-03-11T05:07:14.266Z,3.20
2019-03-11T05:08:22.324Z,3.13
2019-03-11T05:09:30.569Z,3.11
2019-03-11T05:10:38.682Z,3.09
2019-03-11T05:11:46.574Z,3.10
2019-03-11T05:12:54.763Z,3.16
2019-03-11T05:14:03.222Z,3.15
2019-03-11T05:15:13.937Z,3.13
2019-03-11T05:16:22.147Z,3.12
2019-03-11T05:17:30.349Z,3.14
2019-03-11T05:18:38.511Z,3.17
2019-03-11T05:19:46.485Z,3.19
2019-03-11T05:20:55.020Z,3.24
2019-03-11T05:22:03.429Z,3.26
2019-03-11T05:23:11.529Z,3.24
2019-03-11T05:24:19.611Z,3.23
2019-03-11T05:25:28.020Z,3.26
2019-03-11T05:26:36.124Z,3.22
2019-03-11T05:27:44.726Z,3.19
2019-03-11T05:28:53.218Z,3.09
2019-03-11T05:30:01.651Z,3.00
2019-03-11T05:31:09.790Z,2.99
2019-03-11T05:32:17.752Z,2.99
2019-03-11T05:33:25.580Z,3.06
2019-03-11T05:34:33.829Z,3.08
2019-03-11T05:35:42.128Z,3.46
2019-03-11T05:36:50.131Z,3.83
2019-03-11T05:37:58.154Z,4.12
2019-03-11T05:39:08.066Z,4.26
2019-03-11T05:40:21.113Z,4.33
2019-03-11T05:41:29.198Z,4.37
2019-03-11T05:42:36.988Z,4.35
2019-03-11T05:43:44.936Z,4.33
2019-03-11T05:44:53.219Z,4.30
2019-03-11T05:46:01.061Z,4.30
2019-03-11T05:47:08.834Z,4.29
2019-03-11T05:48:16.810Z,4.32
2019-03-11T05:49:24.828Z,4.30
2019-03-11T05:50:33.225Z,4.28
2019-03-11T05:51:41.329Z,4.29
2019-03-11T05:52:49.197Z,4.29
2019-03-11T05:53:57.223Z,4.32
2019-03-11T05:55:06.017Z,4.33
2019-03-11T05:56:13.875Z,4.39
2019-03-11T05:57:22.231Z,4.41
2019-03-11T05:58:30.043Z,4.43
2019-03-11T05:59:38.303Z,4.47
2019-03-11T06:00:46.265Z,4.49
2019-03-11T06:01:54.195Z,4.51
2019-03-11T06:03:02.374Z,4.52
2019-03-11T06:04:10.389Z,4.52
2019-03-11T06:05:18.582Z,4.57
2019-03-11T06:06:26.651Z,4.58
2019-03-11T06:07:34.761Z,4.59
2019-03-11T06:08:42.826Z,4.60
2019-03-11T06:09:51.071Z,4.61
2019-03-11T06:10:59.012Z,4.63
2019-03-11T06:12:07.045Z,4.67
2019-03-11T06:13:15.178Z,4.70
2019-03-11T06:14:23.155Z,4.71
2019-03-11T06:15:31.124Z,4.73
2019-03-11T06:16:39.391Z,4.80
2019-03-11T06:17:47.398Z,4.84
2019-03-11T06:18:55.406Z,4.86
2019-03-11T06:20:11.276Z,4.87
2019-03-11T06:21:21.159Z,4.90
2019-03-11T06:22:29.669Z,4.92
2019-03-11T06:23:37.673Z,4.95
2019-03-11T06:24:45.446Z,4.98
2019-03-11T06:25:53.370Z,4.99
2019-03-11T06:27:01.826Z,5.03
2019-03-11T06:28:10.125Z,5.03
2019-03-11T06:29:18.339Z,5.01
2019-03-11T06:30:26.665Z,5.02
2019-03-11T06:31:34.945Z,5.03
2019-03-11T06:32:42.960Z,5.07
2019-03-11T06:33:51.053Z,5.11
2019-03-11T06:34:59.150Z,5.15
2019-03-11T06:36:07.198Z,5.17
2019-03-11T06:37:15.378Z,5.21
2019-03-11T06:38:23.613Z,5.24
2019-03-11T06:39:31.722Z,5.22
2019-03-11T06:40:39.821Z,5.23
2019-03-11T06:41:47.814Z,5.20
2019-03-11T06:42:55.816Z,5.21
2019-03-11T06:44:03.825Z,5.24
2019-03-11T06:45:14.127Z,5.25
2019-03-11T06:46:22.147Z,5.28
2019-03-11T06:47:30.445Z,5.31
2019-03-11T06:48:38.596Z,5.32
2019-03-11T06:49:46.798Z,5.35
2019-03-11T06:50:54.998Z,5.42
2019-03-11T06:52:03.770Z,5.42
2019-03-11T06:53:12.246Z,5.44
2019-03-11T06:54:20.868Z,5.45
2019-03-11T06:55:29.016Z,5.46
2019-03-11T06:56:37.077Z,5.47
2019-03-11T06:57:44.990Z,5.48
2019-03-11T06:58:53.027Z,5.50
2019-03-11T07:00:01.084Z,5.51
2019-03-11T07:01:09.027Z,5.47
2019-03-11T07:02:16.955Z,5.44
2019-03-11T07:03:25.133Z,5.42
2019-03-11T07:04:33.219Z,5.36
2019-03-11T07:05:41.237Z,5.37
2019-03-11T07:06:49.326Z,5.36
2019-03-11T07:07:57.409Z,5.35
2019-03-11T07:09:07.927Z,5.33
2019-03-11T07:10:17.482Z,5.31
2019-03-11T07:11:25.688Z,5.22
2019-03-11T07:12:34.016Z,5.15
2019-03-11T07:13:42.398Z,5.09
2019-03-11T07:14:50.598Z,5.06
2019-03-11T07:15:58.539Z,5.07
2019-03-11T07:17:06.444Z,5.05
2019-03-11T07:18:14.117Z,5.05
2019-03-11T07:19:22.087Z,5.04
2019-03-11T07:20:30.309Z,5.00
2019-03-11T07:21:38.461Z,4.97
2019-03-11T07:22:46.562Z,4.98
2019-03-11T07:23:54.661Z,4.91
2019-03-11T07:25:02.704Z,4.89
2019-03-11T07:26:10.606Z,4.90
2019-03-11T07:27:18.673Z,4.93
2019-03-11T07:28:26.644Z,4.90
2019-03-11T07:29:34.352Z,4.91
2019-03-11T07:30:42.450Z,4.94
2019-03-11T07:31:50.620Z,4.91
2019-03-11T07:32:58.624Z,4.88
2019-03-11T07:34:06.593Z,4.89
2019-03-11T07:35:14.693Z,4.86
2019-03-11T07:36:22.839Z,4.86
2019-03-11T07:37:30.923Z,4.88
2019-03-11T07:38:39.031Z,4.87
2019-03-11T07:39:46.970Z,4.85
2019-03-11T07:40:55.027Z,4.86
2019-03-11T07:42:03.278Z,4.87
2019-03-11T07:43:11.432Z,4.89
2019-03-11T07:44:19.628Z,4.91
2019-03-11T07:45:27.571Z,4.88
2019-03-11T07:46:35.534Z,4.89
2019-03-11T07:47:43.869Z,4.93
2019-03-11T07:48:51.783Z,4.87
2019-03-11T07:49:59.543Z,4.85
2019-03-11T07:51:07.669Z,4.91
2019-03-11T07:52:15.981Z,4.89
2019-03-11T07:53:24.789Z,4.85
2019-03-11T07:54:36.044Z,4.81
2019-03-11T07:55:42.819Z,4.84
2019-03-11T07:56:50.969Z,4.86
2019-03-11T07:57:59.341Z,4.90
2019-03-11T07:59:07.320Z,4.96
2019-03-11T08:00:21.042Z,4.99
2019-03-11T08:01:29.111Z,5.03
2019-03-11T08:02:37.032Z,5.03
2019-03-11T08:03:45.010Z,5.04
2019-03-11T08:04:53.224Z,5.11
2019-03-11T08:06:01.220Z,5.14
2019-03-11T08:07:09.043Z,5.20
2019-03-11T08:08:17.017Z,5.20
2019-03-11T08:09:36.934Z,5.24
2019-03-11T08:10:34.862Z,5.31
2019-03-11T08:11:42.919Z,5.37
2019-03-11T08:12:50.801Z,5.42
2019-03-11T08:13:58.936Z,5.50
2019-03-11T08:15:11.096Z,5.51
2019-03-11T08:16:19.228Z,5.55
2019-03-11T08:17:27.517Z,5.59
2019-03-11T08:18:35.838Z,5.63
2019-03-11T08:19:43.884Z,5.64
2019-03-11T08:20:51.680Z,5.68
2019-03-11T08:21:59.861Z,5.75
2019-03-11T08:23:07.783Z,5.85
2019-03-11T08:24:16.691Z,5.93
2019-03-11T08:25:24.813Z,5.90
2019-03-11T08:26:32.729Z,5.93
2019-03-11T08:27:40.905Z,5.97
2019-03-11T08:28:49.102Z,6.04
2019-03-11T08:29:59.416Z,6.04
2019-03-11T08:31:06.827Z,6.04
2019-03-11T08:32:14.744Z,6.08
2019-03-11T08:33:22.793Z,6.12
2019-03-11T08:34:30.614Z,6.16
2019-03-11T08:35:39.121Z,6.15
2019-03-11T08:36:47.079Z,6.16
2019-03-11T08:37:55.110Z,6.17
2019-03-11T08:39:02.990Z,6.15
2019-03-11T08:40:13.958Z,6.14
2019-03-11T08:41:22.087Z,6.17
2019-03-11T08:42:30.063Z,6.18
2019-03-11T08:43:38.554Z,6.22
2019-03-11T08:44:46.484Z,6.22
2019-03-11T08:45:54.651Z,6.18
2019-03-11T08:47:02.647Z,6.17
2019-03-11T08:48:10.735Z,6.20
2019-03-11T08:49:18.801Z,6.19
2019-03-11T08:50:26.785Z,6.18
2019-03-11T08:51:34.598Z,6.21
2019-03-11T08:52:42.665Z,6.20
2019-03-11T08:53:51.020Z,6.16
2019-03-11T08:54:59.013Z,6.08
2019-03-11T08:56:06.776Z,6.02
2019-03-11T08:57:14.750Z,6.01
2019-03-11T08:58:22.557Z,6.00
2019-03-11T08:59:30.451Z,6.08
2019-03-11T09:00:38.860Z,6.08
2019-03-11T09:01:46.591Z,6.11
2019-03-11T09:02:54.375Z,6.17
2019-03-11T09:04:02.455Z,6.19
2019-03-11T09:05:14.284Z,6.26
2019-03-11T09:06:22.519Z,6.32
2019-03-11T09:07:30.407Z,6.35
2019-03-11T09:08:38.302Z,6.38
2019-03-11T09:09:46.470Z,6.42
2019-03-11T09:10:54.430Z,6.52
2019-03-11T09:12:02.622Z,6.55
2019-03-11T09:13:10.612Z,6.63
2019-03-11T09:14:18.502Z,6.70
2019-03-11T09:15:26.392Z,6.78
2019-03-11T09:16:34.268Z,6.81
2019-03-11T09:17:42.813Z,6.85
2019-03-11T09:18:50.755Z,6.91
2019-03-11T09:19:58.519Z,6.90
2019-03-11T09:21:06.767Z,6.89
2019-03-11T09:22:14.641Z,6.82
2019-03-11T09:23:22.778Z,6.84
2019-03-11T09:24:30.955Z,6.87
2019-03-11T09:25:39.459Z,6.88
2019-03-11T09:26:47.348Z,6.91
2019-03-11T09:27:55.445Z,6.93
2019-03-11T09:29:04.047Z,6.95
2019-03-11T09:30:21.277Z,6.94
2019-03-11T09:31:29.257Z,6.94
2019-03-11T09:32:37.266Z,6.93
2019-03-11T09:33:45.335Z,6.95
2019-03-11T09:34:53.349Z,6.96
2019-03-11T09:36:01.277Z,7.01
2019-03-11T09:37:09.220Z,7.04
2019-03-11T09:38:17.435Z,7.04
2019-03-11T09:39:25.454Z,7.00
2019-03-11T09:40:33.451Z,7.02
2019-03-11T09:41:42.031Z,7.01
2019-03-11T09:42:50.247Z,7.05
2019-03-11T09:43:58.257Z,7.03
2019-03-11T09:45:10.583Z,7.02
2019-03-11T09:46:18.572Z,7.02
2019-03-11T09:47:26.641Z,7.04
2019-03-11T09:48:34.645Z,7.10
2019-03-11T09:49:42.781Z,7.14
2019-03-11T09:50:50.818Z,7.20
2019-03-11T09:51:58.797Z,7.16
2019-03-11T09:53:07.103Z,7.15
2019-03-11T09:54:15.124Z,7.21
2019-03-11T09:55:29.143Z,7.16
2019-03-11T09:56:43.107Z,7.15
2019-03-11T09:57:46.591Z,7.15
2019-03-11T09:58:54.552Z,7.16
2019-03-11T10:00:03.166Z,7.17
2019-03-11T10:01:11.116Z,7.17
2019-03-11T10:02:19.105Z,7.22
2019-03-11T10:03:27.169Z,7.28
2019-03-11T10:04:35.022Z,7.28
2019-03-11T10:05:42.953Z,7.29
2019-03-11T10:06:50.924Z,7.32
2019-03-11T10:07:59.341Z,7.31
2019-03-11T10:09:08.327Z,7.36
2019-03-11T10:10:21.560Z,7.33
2019-03-11T10:11:29.450Z,7.35
2019-03-11T10:12:37.441Z,7.32
2019-03-11T10:13:45.738Z,7.34
2019-03-11T10:14:53.540Z,7.35
2019-03-11T10:16:01.409Z,7.33
2019-03-11T10:17:09.698Z,7.32
2019-03-11T10:18:17.669Z,7.35
2019-03-11T10:19:25.448Z,7.34
2019-03-11T10:20:33.397Z,7.31
2019-03-11T10:21:41.807Z,7.31
2019-03-11T10:22:50.175Z,7.30
2019-03-11T10:23:59.335Z,7.31
2019-03-11T10:25:10.235Z,7.31
2019-03-11T10:26:18.297Z,7.31
2019-03-11T10:27:26.233Z,7.36
2019-03-11T10:28:34.376Z,7.38
2019-03-11T10:29:42.372Z,7.41
2019-03-11T10:30:50.376Z,7.41
2019-03-11T10:31:58.364Z,7.38
2019-03-11T10:33:06.300Z,7.39
2019-03-11T10:34:14.389Z,7.44
2019-03-11T10:35:37.867Z,7.48
2019-03-11T10:36:32.519Z,7.42
2019-03-11T10:37:40.560Z,7.43
2019-03-11T10:38:48.551Z,7.36
2019-03-11T10:39:56.470Z,7.35
2019-03-11T10:41:04.500Z,7.39
2019-03-11T10:42:12.371Z,7.40
2019-03-11T10:43:20.326Z,7.40
2019-03-11T10:44:28.392Z,7.41
2019-03-11T10:45:36.331Z,7.44
2019-03-11T10:46:45.172Z,7.43
2019-03-11T10:47:53.284Z,7.45
2019-03-11T10:49:01.551Z,7.48
2019-03-11T10:50:13.409Z,7.46
2019-03-11T10:51:21.464Z,7.48
2019-03-11T10:52:29.400Z,7.49
2019-03-11T10:53:37.461Z,7.52
2019-03-11T10:54:45.665Z,7.53
2019-03-11T10:55:53.792Z,7.61
2019-03-11T10:57:01.958Z,7.76
2019-03-11T10:58:09.838Z,7.91
2019-03-11T10:59:18.035Z,8.08
2019-03-11T11:00:37.359Z,8.20
2019-03-11T11:01:45.800Z,8.37
2019-03-11T11:02:53.939Z,8.57
2019-03-11T11:04:02.211Z,8.73
2019-03-11T11:05:11.054Z,8.94
2019-03-11T11:06:19.109Z,9.15
2019-03-11T11:07:27.234Z,9.35
2019-03-11T11:08:35.412Z,9.47
2019-03-11T11:09:43.528Z,9.61
2019-03-11T11:10:51.499Z,9.73
2019-03-11T11:11:59.494Z,9.80
2019-03-11T11:13:07.910Z,9.81
2019-03-11T11:14:15.968Z,9.87
2019-03-11T11:15:32.283Z,9.89
2019-03-11T11:16:40.729Z,9.91
2019-03-11T11:17:48.812Z,9.99
2019-03-11T11:18:56.985Z,10.10
2019-03-11T11:20:07.901Z,10.20
2019-03-11T11:21:15.677Z,10.29
2019-03-11T11:22:23.832Z,10.36
2019-03-11T11:23:31.964Z,10.42
2019-03-11T11:24:40.077Z,10.47
2019-03-11T11:25:48.225Z,10.57
2019-03-11T11:26:56.528Z,10.62
2019-03-11T11:28:05.226Z,10.64
2019-03-11T11:29:13.488Z,10.68
2019-03-11T11:30:25.955Z,10.78
2019-03-11T11:31:34.241Z,10.85
2019-03-11T11:32:42.448Z,10.85
2019-03-11T11:33:50.649Z,10.81
2019-03-11T11:34:58.728Z,10.81
2019-03-11T11:36:07.087Z,10.79
2019-03-11T11:37:14.906Z,10.80
2019-03-11T11:38:23.079Z,10.81
2019-03-11T11:39:31.142Z,10.86
2019-03-11T11:40:39.544Z,10.92
2019-03-11T11:41:47.772Z,10.91
2019-03-11T11:42:55.821Z,10.85
2019-03-11T11:44:03.860Z,10.87
2019-03-11T11:45:19.105Z,10.88
2019-03-11T11:46:27.220Z,10.98
2019-03-11T11:47:35.372Z,11.13
2019-03-11T11:48:43.457Z,11.24
2019-03-11T11:49:51.579Z,11.23
2019-03-11T11:50:59.872Z,11.21
2019-03-11T11:52:08.163Z,11.11
2019-03-11T11:53:16.572Z,11.06
2019-03-11T11:54:24.868Z,11.05
2019-03-11T11:55:33.058Z,11.06
2019-03-11T11:56:41.066Z,11.03
2019-03-11T11:57:49.384Z,11.10
2019-03-11T11:58:57.462Z,11.13
2019-03-11T12:00:12.157Z,11.05
2019-03-11T12:01:20.011Z,11.04
2019-03-11T12:02:28.422Z,10.96
2019-03-11T12:03:36.430Z,10.89
2019-03-11T12:04:44.436Z,10.85
2019-03-11T12:05:52.510Z,10.92
2019-03-11T12:07:00.595Z,10.90
2019-03-11T12:08:08.701Z,10.87
2019-03-11T12:09:16.719Z,10.89
2019-03-11T12:10:30.278Z,10.92
2019-03-11T12:11:38.267Z,11.02
2019-03-11T12:12:46.523Z,11.11
2019-03-11T12:13:54.516Z,11.19
2019-03-11T12:15:02.554Z,11.25
2019-03-11T12:16:10.902Z,11.26
2019-03-11T12:17:19.091Z,11.22
2019-03-11T12:18:27.198Z,11.17
2019-03-11T12:19:35.113Z,11.14
2019-03-11T12:20:43.106Z,11.02
2019-03-11T12:21:51.358Z,10.96
2019-03-11T12:22:59.417Z,10.92
2019-03-11T12:24:07.474Z,10.82
2019-03-11T12:25:17.310Z,10.72
2019-03-11T12:26:25.632Z,10.66
2019-03-11T12:27:33.741Z,10.59
2019-03-11T12:28:41.699Z,10.55
2019-03-11T12:29:51.532Z,10.51
2019-03-11T12:30:59.850Z,10.43
2019-03-11T12:32:08.024Z,10.35
2019-03-11T12:33:16.061Z,10.33
2019-03-11T12:34:24.198Z,10.26
2019-03-11T12:35:32.710Z,10.23
2019-03-11T12:36:40.852Z,10.20
2019-03-11T12:37:48.789Z,10.17
2019-03-11T12:38:56.630Z,10.15
2019-03-11T12:40:06.263Z,10.09
2019-03-11T12:41:14.269Z,10.03
2019-03-11T12:42:22.637Z,10.02
2019-03-11T12:43:30.550Z,9.99
2019-03-11T12:44:38.433Z,9.93
2019-03-11T12:45:46.699Z,9.91
2019-03-11T12:46:55.161Z,9.88
2019-03-11T12:48:03.098Z,9.82
2019-03-11T12:49:11.064Z,9.83
2019-03-11T12:50:27.796Z,9.83
2019-03-11T12:51:35.875Z,9.80
2019-03-11T12:52:43.843Z,9.89
2019-03-11T12:53:52.084Z,10.04
2019-03-11T12:55:00.342Z,10.11
2019-03-11T12:56:08.463Z,10.27
2019-03-11T12:57:16.502Z,10.45
2019-03-11T12:58:24.846Z,10.67
2019-03-11T12:59:40.293Z,10.80
2019-03-11T13:00:42.785Z,10.80
2019-03-11T13:01:51.047Z,10.75
2019-03-11T13:02:59.487Z,10.70
2019-03-11T13:04:07.397Z,10.63
2019-03-11T13:05:16.370Z,10.56
2019-03-11T13:06:24.499Z,10.46
2019-03-11T13:07:32.755Z,10.43
2019-03-11T13:08:40.831Z,10.43
2019-03-11T13:09:49.330Z,10.52
2019-03-11T13:10:57.701Z,10.61
2019-03-11T13:12:06.003Z,10.72
2019-03-11T13:13:14.171Z,10.86
2019-03-11T13:14:22.407Z,10.91
2019-03-11T13:15:30.702Z,10.99
2019-03-11T13:16:39.111Z,11.02
2019-03-11T13:17:47.441Z,10.95
2019-03-11T13:18:55.670Z,10.84
2019-03-11T13:20:04.581Z,10.73
2019-03-11T13:21:23.060Z,10.65
2019-03-11T13:22:31.258Z,10.59
2019-03-11T13:23:41.411Z,10.54
2019-03-11T13:24:48.961Z,10.43
2019-03-11T13:25:57.050Z,10.38
2019-03-11T13:27:05.246Z,10.31
2019-03-11T13:28:13.370Z,10.30
2019-03-11T13:29:21.471Z,10.29
2019-03-11T13:30:30.075Z,10.30
2019-03-11T13:31:38.428Z,10.34
2019-03-11T13:32:46.417Z,10.40
2019-03-11T13:33:54.696Z,10.46
2019-03-11T13:35:02.789Z,10.58
2019-03-11T13:36:11.310Z,10.66
2019-03-11T13:37:19.423Z,10.72
2019-03-11T13:38:27.571Z,10.78
2019-03-11T13:39:35.591Z,10.91
2019-03-11T13:40:43.789Z,11.07
2019-03-11T13:41:53.074Z,11.24
2019-03-11T13:43:01.089Z,11.32
2019-03-11T13:44:09.514Z,11.42
2019-03-11T13:45:20.808Z,11.45
2019-03-11T13:46:28.743Z,11.41
2019-03-11T13:47:36.903Z,11.30
2019-03-11T13:48:45.045Z,11.22
2019-03-11T13:49:53.227Z,11.22
2019-03-11T13:51:01.881Z,11.19
2019-03-11T13:52:10.256Z,11.17
2019-03-11T13:53:18.266Z,11.14
2019-03-11T13:54:26.487Z,11.13
2019-03-11T13:55:34.778Z,11.19
2019-03-11T13:56:42.947Z,11.32
2019-03-11T13:57:50.993Z,11.44
2019-03-11T13:58:59.219Z,11.53
2019-03-11T14:00:15.446Z,11.66
2019-03-11T14:01:23.396Z,11.75
2019-03-11T14:02:31.912Z,11.81
2019-03-11T14:03:39.873Z,11.79
2019-03-11T14:04:47.954Z,11.71
2019-03-11T14:05:56.918Z,11.70
2019-03-11T14:07:05.127Z,11.58
2019-03-11T14:08:13.237Z,11.50
2019-03-11T14:09:21.344Z,11.46
2019-03-11T14:10:29.347Z,11.42
2019-03-11T14:11:37.184Z,11.30
2019-03-11T14:12:46.163Z,11.24
2019-03-11T14:13:54.012Z,11.20
2019-03-11T14:15:01.930Z,11.08
2019-03-11T14:16:09.978Z,10.98
2019-03-11T14:17:17.934Z,10.96
2019-03-11T14:18:26.050Z,10.93
2019-03-11T14:19:34.146Z,10.86
2019-03-11T14:20:42.368Z,10.84
2019-03-11T14:21:50.573Z,10.81
2019-03-11T14:22:59.036Z,10.76
2019-03-11T14:24:07.158Z,10.66
2019-03-11T14:25:16.049Z,10.57
2019-03-11T14:26:24.143Z,10.47
2019-03-11T14:27:32.855Z,10.49
2019-03-11T14:28:41.087Z,10.42
2019-03-11T14:29:49.087Z,10.41
2019-03-11T14:30:57.476Z,10.30
2019-03-11T14:32:05.675Z,10.30
2019-03-11T14:33:13.630Z,10.24
2019-03-11T14:34:21.946Z,10.19
2019-03-11T14:35:30.126Z,10.15
2019-03-11T14:36:38.303Z,10.05
2019-03-11T14:37:46.586Z,10.07
2019-03-11T14:38:54.561Z,10.00
2019-03-11T14:40:03.174Z,9.97
2019-03-11T14:41:11.670Z,9.95
2019-03-11T14:42:19.969Z,9.87
2019-03-11T14:43:28.528Z,9.80
2019-03-11T14:44:37.191Z,9.73
2019-03-11T14:45:45.316Z,9.68
2019-03-11T14:46:54.814Z,9.62
2019-03-11T14:48:03.025Z,9.56
2019-03-11T14:49:11.425Z,9.50
2019-03-11T14:50:20.088Z,9.51
2019-03-11T14:51:28.344Z,9.46
2019-03-11T14:52:36.269Z,9.44
2019-03-11T14:53:44.702Z,9.45
2019-03-11T14:54:52.688Z,9.43
2019-03-11T14:56:01.032Z,9.41
2019-03-11T14:57:08.948Z,9.43
2019-03-11T14:58:17.202Z,9.44
2019-03-11T14:59:25.541Z,9.43
2019-03-11T15:00:33.927Z,9.38
2019-03-11T15:01:42.246Z,9.34
2019-03-11T15:02:50.229Z,9.25
2019-03-11T15:03:58.571Z,9.23
2019-03-11T15:05:08.260Z,9.21